Guatemala City, Guatemala
Current Conditions -  °F | °C
As of 11:00 PM on Monday 20 Oct 2014 (Local Time) from MGGT Reporting Station
Broken Clouds Broken Clouds  
Wind Chill: 18°   Ceiling: 1400
Heat Index: 18°   Visibility: 5mi
Dew Point: 17°   Wind: 7mph
Humidity: 94%   Direction: 180°S
Pressure: 30.21"   Gusts: NA
Location:  14.58°N, 90.52°W
Report Text: MGGT 210500Z 18006KT 8000 BKN014 BKN090 18/17 Q1023 A3021 BR
Loading
Personal Weather Stations






























Interactive Weather Map
Tropical Storm Tracking
New forecast layout! Learn more

10-Day Weather Forecast

Advertisements
Track Severe Weather on mobile